Aérodrome :
LOGIN :

S'inscrire | Disclaimer

   EN    FR    IT 

 










Légende :    VFR   VFR Marginal   IFR   IFR Intensif   IFR Très Intensif
Visi : 
Plafond : 
>= 8 km
>= 3000ft
5 à 8 km
1000 à 3000 ft
1500m à 5 km
500 à 1000 ft
800 à 1500m
200 à 500 ft
< 800m
< 200 ft
Symboles :   Orages  Brouillard  Fortes neiges  Fortes précipitations  Vent > 20 kt
SIGMETs :   Divers  Orages  Givrage  Turbulence  Onde Orograph.  Cendres Volcan.







- Altitude de l'aérodrome : 580 ft
- Voir les cartes d'approche


LFOA - Avord

DERNIER METAR :
  • 280300Z AUTO 22012KT 9999 FEW033 BKN160 BKN180 05/03 Q1000

METARs EXPIRÉS :
  • 280230Z AUTO 22013KT 9999 FEW025 BKN180 05/03 Q1000
  • 280200Z AUTO 23010KT 9999 SCT026 SCT062 OVC170 05/03 Q1000
  • 280130Z AUTO 22010KT CAVOK 05/03 Q1000
  • 280100Z AUTO 22012KT CAVOK 05/03 Q1000
  • 280030Z AUTO 22013KT CAVOK 05/03 Q1001

TAF TAF LFOA
Valide du 27 à 15h jusqu'au 28 à 15h UTC


271400Z 2715/2815 22020G30KT 9999 BKN035
TEMPO 2715/2809 4000 SHRA SCT012 BKN030TCU
PROB40
TEMPO 2715/2722 VRB28G42KT 2500 -TSRAGS BKN010 BKN030CB
TEMPO 2812/2815 25020G40KT 4000 SHRA BKN025TCU
PROB30 2812/2815 2500 -TSRAGS BKN012 BKN030CB
Pas de NOTAMs connus pour ce terrain.
1 SIGMET publié pour la FIR Paris (LFFF) :
 
Turbulence forte
LFFF SIGMET 11 VALID 280000/280400 LFPW
LFFF PARIS FIR/UIR SEV TURB FCST WI N4915 W00015 - N5000 W00015 - N5100 E00145 - N5015 E00200 SFC/FL060 STNR NC=



MET'MAP, la Météo Aéronautique d'un coup d'oeil ! - Copyright ORBIFLY Décembre 2007 - Disclaimer

ORBIFLY MET'MAP TEAM :

Programmation & Développement : Alexandra Zaïnal
Conception & Développement : Baudouin d'Aumeries
Co-Programmation & Développement : Marc-Olivier Méhu
Soutien technique & logistique : Manuel Goepfert

Contact : metmap@orbifly.com




SOURCES & CREDITS :

   NOAA